BAW49Q EGLL-LXGB
Flight info
| Callsign | BAW49Q |
|---|---|
| Flight time | 2h 29m |
| Altitude | 35000 |
| Route | GOGSI N621 SAM M195 MARUK N621 LELNA DCT NOVAN DCT DELOG DCT CRISA DCT VULPE DCT MAR N864 PIMOS |
| Aircraft | A320/M-SDE3FGHIRWY/LB1 |
Departure
| Time | 2026-05-04 15:58 |
|---|---|
| Airport | London Heathrow Airport (EGLL) |
Arrival
| Time | 2026-05-04 18:28 |
|---|---|
| Airport | Gibraltar Airport (LXGB) |
| Time | Latitude | Longitude | Altitude | Speed | Heading |
|---|---|---|---|---|---|
| 2026-05-04 15:45 | 51.46926 | -0.48716 | 85 ft | 0 kts | 0° |
| 2026-05-04 15:50 | 51.46924 | -0.48716 | 85 ft | 2 kts | 0° |
| 2026-05-04 15:50 | 51.46906 | -0.48716 | 89 ft | 2 kts | 0° |
| 2026-05-04 15:50 | 51.46889 | -0.48716 | 87 ft | 3 kts | 12° |
| 2026-05-04 15:51 | 51.46873 | -0.48727 | 89 ft | 3 kts | 48° |
| 2026-05-04 15:51 | 51.46867 | -0.48738 | 88 ft | 0 kts | 64° |
| 2026-05-04 15:51 | 51.46872 | -0.48719 | 89 ft | 6 kts | 68° |
| 2026-05-04 15:51 | 51.46878 | -0.48618 | 85 ft | 10 kts | 89° |
| 2026-05-04 15:52 | 51.46878 | -0.48491 | 85 ft | 12 kts | 90° |
| 2026-05-04 15:52 | 51.46906 | -0.48364 | 88 ft | 14 kts | 27° |
| 2026-05-04 15:52 | 51.47006 | -0.48357 | 85 ft | 15 kts | 358° |
| 2026-05-04 15:52 | 51.47142 | -0.48357 | 86 ft | 30 kts | 1° |
| 2026-05-04 15:53 | 51.47373 | -0.48359 | 85 ft | 34 kts | 359° |
| 2026-05-04 15:53 | 51.47566 | -0.48337 | 87 ft | 12 kts | 44° |
| 2026-05-04 15:53 | 51.47582 | -0.48154 | 91 ft | 30 kts | 93° |
| 2026-05-04 15:53 | 51.47583 | -0.47740 | 88 ft | 37 kts | 89° |
| 2026-05-04 15:54 | 51.47584 | -0.47325 | 88 ft | 37 kts | 88° |
| 2026-05-04 15:54 | 51.47585 | -0.46925 | 87 ft | 32 kts | 88° |
| 2026-05-04 15:54 | 51.47591 | -0.46575 | 88 ft | 32 kts | 90° |
| 2026-05-04 15:54 | 51.47596 | -0.46208 | 90 ft | 33 kts | 88° |
| 2026-05-04 15:55 | 51.47595 | -0.45852 | 89 ft | 32 kts | 90° |
| 2026-05-04 15:55 | 51.47594 | -0.45492 | 88 ft | 33 kts | 90° |
| 2026-05-04 15:55 | 51.47598 | -0.45127 | 87 ft | 32 kts | 89° |
| 2026-05-04 15:55 | 51.47605 | -0.44808 | 90 ft | 29 kts | 91° |
| 2026-05-04 15:56 | 51.47597 | -0.44477 | 87 ft | 31 kts | 90° |
| 2026-05-04 15:56 | 51.47594 | -0.44124 | 88 ft | 32 kts | 91° |
| 2026-05-04 15:56 | 51.47588 | -0.43838 | 85 ft | 17 kts | 91° |
| 2026-05-04 15:56 | 51.47641 | -0.43779 | 87 ft | 5 kts | 337° |
| 2026-05-04 15:57 | 51.47683 | -0.43806 | 85 ft | 9 kts | 337° |
| 2026-05-04 15:57 | 51.47747 | -0.43869 | 85 ft | 13 kts | 315° |
| 2026-05-04 15:57 | 51.47764 | -0.44082 | 84 ft | 41 kts | 270° |
| 2026-05-04 15:57 | 51.47763 | -0.44902 | 92 ft | 104 kts | 269° |
| 2026-05-04 15:58 | 51.47758 | -0.46323 | 92 ft | 152 kts | 269° |
| 2026-05-04 15:58 | 51.47771 | -0.48261 | 147 ft | 186 kts | 274° |
| 2026-05-04 15:58 | 51.47822 | -0.50209 | 1070 ft | 166 kts | 275° |
| 2026-05-04 15:58 | 51.47864 | -0.52153 | 1502 ft | 185 kts | 267° |
| 2026-05-04 15:59 | 51.47567 | -0.54267 | 1789 ft | 209 kts | 256° |
| 2026-05-04 15:59 | 51.47167 | -0.56683 | 2060 ft | 234 kts | 257° |
| 2026-05-04 15:59 | 51.46749 | -0.59304 | 2450 ft | 257 kts | 257° |
| 2026-05-04 15:59 | 51.46300 | -0.62174 | 3188 ft | 265 kts | 257° |
| 2026-05-04 16:00 | 51.45857 | -0.65061 | 4102 ft | 267 kts | 258° |
| 2026-05-04 16:00 | 51.45658 | -0.67985 | 5048 ft | 269 kts | 269° |
| 2026-05-04 16:00 | 51.45629 | -0.70992 | 5981 ft | 270 kts | 268° |
| 2026-05-04 16:00 | 51.45588 | -0.74019 | 6834 ft | 272 kts | 267° |
| 2026-05-04 16:01 | 51.45529 | -0.77063 | 7641 ft | 275 kts | 266° |
| 2026-05-04 16:01 | 51.45459 | -0.80136 | 8496 ft | 277 kts | 266° |
| 2026-05-04 16:01 | 51.45143 | -0.83191 | 9295 ft | 279 kts | 246° |
| 2026-05-04 16:01 | 51.44056 | -0.85732 | 10023 ft | 280 kts | 221° |
| 2026-05-04 16:02 | 51.42443 | -0.87585 | 10400 ft | 296 kts | 213° |
| 2026-05-04 16:02 | 51.40649 | -0.89450 | 10550 ft | 319 kts | 212° |
| 2026-05-04 16:02 | 51.36702 | -0.93378 | 11300 ft | 344 kts | 211° |
| 2026-05-04 16:03 | 51.34617 | -0.95302 | 11912 ft | 348 kts | 209° |
| 2026-05-04 16:03 | 51.32480 | -0.97180 | 12543 ft | 352 kts | 208° |
| 2026-05-04 16:03 | 51.30317 | -0.99051 | 13170 ft | 356 kts | 208° |
| 2026-05-04 16:03 | 51.28134 | -1.00981 | 13797 ft | 360 kts | 211° |
| 2026-05-04 16:04 | 51.25993 | -1.03059 | 14367 ft | 363 kts | 212° |
| 2026-05-04 16:04 | 51.21730 | -1.07520 | 15513 ft | 368 kts | 213° |
| 2026-05-04 16:04 | 51.19592 | -1.09798 | 16070 ft | 371 kts | 213° |
| 2026-05-04 16:05 | 51.17433 | -1.12079 | 16649 ft | 373 kts | 213° |
| 2026-05-04 16:05 | 51.15260 | -1.14351 | 17235 ft | 376 kts | 212° |
| 2026-05-04 16:05 | 51.10832 | -1.18900 | 18405 ft | 382 kts | 212° |
| 2026-05-04 16:06 | 51.08584 | -1.21192 | 18947 ft | 384 kts | 212° |
| 2026-05-04 16:06 | 51.02544 | -1.27355 | 20457 ft | 390 kts | 212° |
| 2026-05-04 16:07 | 50.99477 | -1.30481 | 21164 ft | 393 kts | 212° |
| 2026-05-04 16:07 | 50.92535 | -1.37578 | 22638 ft | 398 kts | 213° |
| 2026-05-04 16:08 | 50.90217 | -1.39997 | 23117 ft | 400 kts | 213° |
| 2026-05-04 16:08 | 50.83244 | -1.47292 | 24338 ft | 404 kts | 213° |
| 2026-05-04 16:09 | 50.78533 | -1.52189 | 25091 ft | 406 kts | 213° |
| 2026-05-04 16:09 | 50.73786 | -1.57098 | 25825 ft | 409 kts | 212° |
| 2026-05-04 16:10 | 50.69014 | -1.62016 | 26554 ft | 411 kts | 212° |
| 2026-05-04 16:11 | 50.62572 | -1.68644 | 27502 ft | 414 kts | 211° |
| 2026-05-04 16:11 | 50.60183 | -1.71093 | 27850 ft | 415 kts | 211° |
| 2026-05-04 16:12 | 50.52972 | -1.78482 | 29380 ft | 408 kts | 211° |
| 2026-05-04 16:12 | 50.45876 | -1.85723 | 30673 ft | 405 kts | 210° |
| 2026-05-04 16:13 | 50.41142 | -1.90534 | 31320 ft | 407 kts | 211° |
| 2026-05-04 16:13 | 50.36367 | -1.95370 | 31964 ft | 409 kts | 211° |
| 2026-05-04 16:14 | 50.31578 | -2.00213 | 32616 ft | 411 kts | 211° |
| 2026-05-04 16:14 | 50.26718 | -2.04962 | 33269 ft | 412 kts | 205° |
| 2026-05-04 16:15 | 50.18457 | -2.08064 | 34136 ft | 413 kts | 185° |
| 2026-05-04 16:16 | 50.12710 | -2.08793 | 34639 ft | 415 kts | 185° |
| 2026-05-04 16:16 | 50.04033 | -2.09900 | 35001 ft | 424 kts | 185° |
| 2026-05-04 16:17 | 49.98121 | -2.10845 | 34997 ft | 428 kts | 192° |
| 2026-05-04 16:18 | 49.86682 | -2.16075 | 35000 ft | 428 kts | 196° |
| 2026-05-04 16:19 | 49.72449 | -2.22678 | 35009 ft | 428 kts | 196° |
| 2026-05-04 16:20 | 49.58179 | -2.29300 | 35012 ft | 428 kts | 196° |
| 2026-05-04 16:22 | 49.43959 | -2.35816 | 35014 ft | 427 kts | 196° |
| 2026-05-04 16:23 | 49.26871 | -2.43621 | 35014 ft | 427 kts | 196° |
| 2026-05-04 16:25 | 49.09783 | -2.51370 | 35011 ft | 426 kts | 196° |
| 2026-05-04 16:26 | 48.89896 | -2.60317 | 34998 ft | 426 kts | 196° |
| 2026-05-04 16:28 | 48.75656 | -2.66672 | 35007 ft | 426 kts | 196° |
| 2026-05-04 16:29 | 48.55733 | -2.75507 | 35018 ft | 427 kts | 196° |
| 2026-05-04 16:31 | 48.41457 | -2.81797 | 35015 ft | 427 kts | 196° |
| 2026-05-04 16:32 | 48.24352 | -2.89271 | 34993 ft | 426 kts | 196° |
| 2026-05-04 16:33 | 48.13004 | -2.94200 | 34982 ft | 425 kts | 196° |
| 2026-05-04 16:34 | 48.04468 | -2.97904 | 34980 ft | 425 kts | 196° |
| 2026-05-04 16:35 | 47.87438 | -3.05256 | 34982 ft | 425 kts | 196° |
| 2026-05-04 16:36 | 47.78911 | -3.08908 | 34985 ft | 425 kts | 196° |
| 2026-05-04 16:37 | 47.70370 | -3.12553 | 34985 ft | 425 kts | 196° |
| 2026-05-04 16:38 | 47.58998 | -3.17397 | 34983 ft | 425 kts | 196° |
| 2026-05-04 16:39 | 47.44783 | -3.23418 | 34990 ft | 425 kts | 196° |
| 2026-05-04 16:40 | 47.33431 | -3.28191 | 34985 ft | 424 kts | 196° |
| 2026-05-04 16:41 | 47.19295 | -3.34121 | 34985 ft | 423 kts | 196° |
| 2026-05-04 16:43 | 47.05124 | -3.40038 | 34989 ft | 423 kts | 196° |
| 2026-05-04 16:43 | 46.96668 | -3.43542 | 34990 ft | 422 kts | 196° |
| 2026-05-04 16:45 | 46.79677 | -3.50568 | 34990 ft | 423 kts | 196° |
| 2026-05-04 16:46 | 46.65527 | -3.56371 | 34992 ft | 422 kts | 197° |
| 2026-05-04 16:47 | 46.54212 | -3.60978 | 34997 ft | 422 kts | 197° |
| 2026-05-04 16:48 | 46.42957 | -3.65560 | 34995 ft | 421 kts | 197° |
| 2026-05-04 16:49 | 46.31663 | -3.69964 | 34996 ft | 420 kts | 190° |
| 2026-05-04 16:50 | 46.20014 | -3.71746 | 34991 ft | 420 kts | 188° |
| 2026-05-04 16:51 | 46.11294 | -3.73030 | 34994 ft | 420 kts | 188° |
| 2026-05-04 16:52 | 45.99692 | -3.74765 | 34994 ft | 419 kts | 188° |
| 2026-05-04 16:53 | 45.90983 | -3.76052 | 34993 ft | 419 kts | 188° |
| 2026-05-04 16:54 | 45.79389 | -3.77760 | 34998 ft | 418 kts | 188° |
| 2026-05-04 16:55 | 45.62073 | -3.80292 | 34995 ft | 417 kts | 188° |
| 2026-05-04 16:56 | 45.48628 | -3.82245 | 34991 ft | 416 kts | 188° |
| 2026-05-04 16:57 | 45.39998 | -3.83515 | 34997 ft | 416 kts | 188° |
| 2026-05-04 16:58 | 45.28511 | -3.85168 | 35002 ft | 415 kts | 188° |
| 2026-05-04 17:00 | 45.11257 | -3.87639 | 35004 ft | 414 kts | 189° |
| 2026-05-04 17:01 | 44.96962 | -3.89708 | 35007 ft | 413 kts | 189° |
| 2026-05-04 17:02 | 44.85532 | -3.91319 | 34990 ft | 410 kts | 189° |
| 2026-05-04 17:03 | 44.77060 | -3.92529 | 34989 ft | 410 kts | 189° |
| 2026-05-04 17:03 | 44.68545 | -3.93737 | 34995 ft | 409 kts | 189° |
| 2026-05-04 17:04 | 44.57185 | -3.95347 | 34997 ft | 410 kts | 189° |
| 2026-05-04 17:05 | 44.45866 | -3.96932 | 35007 ft | 410 kts | 189° |
| 2026-05-04 17:06 | 44.37346 | -3.98128 | 35005 ft | 410 kts | 189° |
| 2026-05-04 17:07 | 44.29736 | -3.99161 | 35008 ft | 411 kts | 188° |
| 2026-05-04 17:07 | 44.23120 | -3.99892 | 35010 ft | 411 kts | 188° |
| 2026-05-04 17:08 | 44.14566 | -4.00834 | 35000 ft | 410 kts | 188° |
| 2026-05-04 17:09 | 44.08872 | -4.01499 | 35009 ft | 410 kts | 188° |
| 2026-05-04 17:09 | 44.03217 | -4.02149 | 35011 ft | 410 kts | 188° |
| 2026-05-04 17:10 | 43.88973 | -4.03762 | 35017 ft | 411 kts | 188° |
| 2026-05-04 17:11 | 43.83265 | -4.04399 | 35017 ft | 412 kts | 188° |
| 2026-05-04 17:12 | 43.74691 | -4.05376 | 35031 ft | 412 kts | 188° |
| 2026-05-04 17:13 | 43.60436 | -4.06970 | 35033 ft | 412 kts | 188° |
| 2026-05-04 17:14 | 43.49009 | -4.08267 | 35037 ft | 412 kts | 188° |
| 2026-05-04 17:15 | 43.40437 | -4.09219 | 35039 ft | 412 kts | 188° |
| 2026-05-04 17:16 | 43.29024 | -4.10480 | 35029 ft | 411 kts | 188° |
| 2026-05-04 17:17 | 43.17657 | -4.11748 | 35030 ft | 412 kts | 188° |
| 2026-05-04 17:18 | 43.06214 | -4.13014 | 35020 ft | 413 kts | 188° |
| 2026-05-04 17:19 | 42.94734 | -4.14267 | 35182 ft | 414 kts | 188° |
| 2026-05-04 17:19 | 42.88887 | -4.14913 | 35022 ft | 431 kts | 188° |
| 2026-05-04 17:20 | 42.82871 | -4.15565 | 35021 ft | 434 kts | 188° |
| 2026-05-04 17:20 | 42.73833 | -4.16548 | 35013 ft | 434 kts | 188° |
| 2026-05-04 17:21 | 42.61838 | -4.17851 | 35008 ft | 434 kts | 188° |
| 2026-05-04 17:22 | 42.55818 | -4.18510 | 35005 ft | 434 kts | 189° |
| 2026-05-04 17:23 | 42.43766 | -4.19815 | 34996 ft | 434 kts | 189° |
| 2026-05-04 17:24 | 42.34789 | -4.20790 | 34991 ft | 433 kts | 189° |
| 2026-05-04 17:25 | 42.22757 | -4.22071 | 34986 ft | 433 kts | 189° |
| 2026-05-04 17:26 | 42.10720 | -4.23369 | 34978 ft | 434 kts | 189° |
| 2026-05-04 17:27 | 41.95671 | -4.24967 | 34978 ft | 434 kts | 189° |
| 2026-05-04 17:28 | 41.83646 | -4.26241 | 34974 ft | 434 kts | 190° |
| 2026-05-04 17:29 | 41.65584 | -4.28159 | 34980 ft | 434 kts | 190° |
| 2026-05-04 17:31 | 41.50561 | -4.29724 | 34980 ft | 434 kts | 190° |
| 2026-05-04 17:32 | 41.35515 | -4.31304 | 34976 ft | 434 kts | 190° |
| 2026-05-04 17:33 | 41.23486 | -4.32554 | 34974 ft | 433 kts | 191° |
| 2026-05-04 17:34 | 41.11450 | -4.33810 | 34975 ft | 434 kts | 191° |
| 2026-05-04 17:35 | 40.96435 | -4.35362 | 34975 ft | 434 kts | 191° |
| 2026-05-04 17:36 | 40.90412 | -4.35980 | 34973 ft | 434 kts | 191° |
| 2026-05-04 17:36 | 40.84390 | -4.36596 | 34971 ft | 434 kts | 191° |
| 2026-05-04 17:37 | 40.78371 | -4.37209 | 34974 ft | 434 kts | 191° |
| 2026-05-04 17:37 | 40.72341 | -4.37829 | 34970 ft | 434 kts | 191° |
| 2026-05-04 17:38 | 40.66322 | -4.38454 | 34970 ft | 434 kts | 191° |
| 2026-05-04 17:38 | 40.60341 | -4.39059 | 34969 ft | 434 kts | 191° |
| 2026-05-04 17:39 | 40.51312 | -4.39982 | 34956 ft | 433 kts | 191° |
| 2026-05-04 17:39 | 40.45288 | -4.40597 | 34957 ft | 434 kts | 191° |
| 2026-05-04 17:40 | 40.39267 | -4.41203 | 34953 ft | 434 kts | 191° |
| 2026-05-04 17:40 | 40.33253 | -4.41806 | 34954 ft | 434 kts | 192° |
| 2026-05-04 17:41 | 40.27224 | -4.42419 | 34955 ft | 434 kts | 192° |
| 2026-05-04 17:41 | 40.21204 | -4.43028 | 34960 ft | 434 kts | 192° |
| 2026-05-04 17:42 | 40.15181 | -4.43638 | 34957 ft | 434 kts | 192° |
| 2026-05-04 17:42 | 40.09155 | -4.44243 | 34959 ft | 434 kts | 192° |
| 2026-05-04 17:43 | 40.03124 | -4.44843 | 34957 ft | 434 kts | 192° |
| 2026-05-04 17:43 | 39.97099 | -4.45437 | 34958 ft | 434 kts | 192° |
| 2026-05-04 17:44 | 39.91111 | -4.46042 | 34955 ft | 434 kts | 192° |
| 2026-05-04 17:44 | 39.85086 | -4.46649 | 34958 ft | 434 kts | 192° |
| 2026-05-04 17:45 | 39.79064 | -4.47249 | 34961 ft | 434 kts | 192° |
| 2026-05-04 17:45 | 39.74021 | -4.47752 | 34962 ft | 434 kts | 192° |
| 2026-05-04 17:46 | 39.67995 | -4.48347 | 34964 ft | 434 kts | 192° |
| 2026-05-04 17:46 | 39.62022 | -4.48942 | 34965 ft | 433 kts | 192° |
| 2026-05-04 17:47 | 39.56002 | -4.49542 | 34966 ft | 434 kts | 192° |
| 2026-05-04 17:47 | 39.49983 | -4.50132 | 34966 ft | 434 kts | 192° |
| 2026-05-04 17:48 | 39.43959 | -4.50715 | 34972 ft | 434 kts | 192° |
| 2026-05-04 17:48 | 39.37938 | -4.51310 | 34964 ft | 433 kts | 192° |
| 2026-05-04 17:49 | 39.31933 | -4.51909 | 34970 ft | 434 kts | 192° |
| 2026-05-04 17:49 | 39.25899 | -4.52499 | 34977 ft | 434 kts | 192° |
| 2026-05-04 17:50 | 39.19918 | -4.53077 | 34988 ft | 434 kts | 192° |
| 2026-05-04 17:50 | 39.13899 | -4.53675 | 34979 ft | 433 kts | 192° |
| 2026-05-04 17:51 | 39.07884 | -4.54265 | 34988 ft | 434 kts | 192° |
| 2026-05-04 17:51 | 39.01869 | -4.54844 | 34977 ft | 433 kts | 192° |
| 2026-05-04 17:52 | 38.95845 | -4.55431 | 34976 ft | 434 kts | 192° |
| 2026-05-04 17:52 | 38.89906 | -4.56242 | 34979 ft | 430 kts | 196° |
| 2026-05-04 17:53 | 38.84030 | -4.57531 | 34979 ft | 427 kts | 198° |
| 2026-05-04 17:53 | 38.78173 | -4.58896 | 34986 ft | 428 kts | 197° |
| 2026-05-04 17:54 | 38.72294 | -4.60159 | 34989 ft | 429 kts | 197° |
| 2026-05-04 17:54 | 38.66399 | -4.61359 | 34987 ft | 429 kts | 196° |
| 2026-05-04 17:55 | 38.60508 | -4.62559 | 34986 ft | 429 kts | 197° |
| 2026-05-04 17:55 | 38.54619 | -4.63786 | 34987 ft | 428 kts | 197° |
| 2026-05-04 17:56 | 38.48771 | -4.65007 | 34982 ft | 428 kts | 197° |
| 2026-05-04 17:56 | 38.42885 | -4.66216 | 34979 ft | 428 kts | 197° |
| 2026-05-04 17:57 | 38.36993 | -4.67428 | 34977 ft | 428 kts | 197° |
| 2026-05-04 17:57 | 38.31104 | -4.68642 | 34976 ft | 429 kts | 197° |
| 2026-05-04 17:58 | 38.25211 | -4.69842 | 34975 ft | 429 kts | 197° |
| 2026-05-04 17:58 | 38.19316 | -4.71047 | 34971 ft | 429 kts | 197° |
| 2026-05-04 17:59 | 38.13423 | -4.72253 | 34969 ft | 429 kts | 197° |
| 2026-05-04 18:00 | 38.04626 | -4.74057 | 34963 ft | 429 kts | 197° |
| 2026-05-04 18:00 | 37.98736 | -4.75259 | 34951 ft | 429 kts | 197° |
| 2026-05-04 18:00 | 37.95796 | -4.75857 | 34779 ft | 427 kts | 197° |
| 2026-05-04 18:01 | 37.92856 | -4.76456 | 34108 ft | 428 kts | 197° |
| 2026-05-04 18:01 | 37.89902 | -4.77060 | 33315 ft | 430 kts | 197° |
| 2026-05-04 18:01 | 37.86935 | -4.77663 | 32492 ft | 432 kts | 197° |
| 2026-05-04 18:02 | 37.80966 | -4.78875 | 30851 ft | 437 kts | 196° |
| 2026-05-04 18:02 | 37.77962 | -4.79486 | 30014 ft | 439 kts | 196° |
| 2026-05-04 18:02 | 37.74931 | -4.80100 | 29071 ft | 440 kts | 195° |
| 2026-05-04 18:02 | 37.71957 | -4.80695 | 28415 ft | 435 kts | 195° |
| 2026-05-04 18:03 | 37.68978 | -4.81288 | 27750 ft | 431 kts | 195° |
| 2026-05-04 18:03 | 37.66032 | -4.81877 | 27102 ft | 427 kts | 195° |
| 2026-05-04 18:03 | 37.63108 | -4.82466 | 26465 ft | 423 kts | 195° |
| 2026-05-04 18:03 | 37.60216 | -4.83051 | 25862 ft | 419 kts | 195° |
| 2026-05-04 18:04 | 37.57350 | -4.83632 | 25262 ft | 415 kts | 195° |
| 2026-05-04 18:04 | 37.54508 | -4.84206 | 24698 ft | 413 kts | 195° |
| 2026-05-04 18:04 | 37.48848 | -4.85341 | 23784 ft | 410 kts | 195° |
| 2026-05-04 18:05 | 37.46037 | -4.85904 | 23263 ft | 407 kts | 195° |
| 2026-05-04 18:05 | 37.43250 | -4.86462 | 22718 ft | 404 kts | 195° |
| 2026-05-04 18:05 | 37.40483 | -4.87014 | 22176 ft | 401 kts | 194° |
| 2026-05-04 18:05 | 37.37739 | -4.87559 | 21646 ft | 398 kts | 194° |
| 2026-05-04 18:06 | 37.32307 | -4.88642 | 20632 ft | 392 kts | 194° |
| 2026-05-04 18:06 | 37.29619 | -4.89180 | 20135 ft | 390 kts | 194° |
| 2026-05-04 18:06 | 37.26954 | -4.89715 | 19641 ft | 387 kts | 194° |
| 2026-05-04 18:07 | 37.24295 | -4.90252 | 19161 ft | 385 kts | 194° |
| 2026-05-04 18:07 | 37.21661 | -4.90782 | 18684 ft | 382 kts | 194° |
| 2026-05-04 18:07 | 37.19047 | -4.91302 | 18215 ft | 379 kts | 194° |
| 2026-05-04 18:07 | 37.16447 | -4.91816 | 17675 ft | 376 kts | 194° |
| 2026-05-04 18:08 | 37.13903 | -4.92321 | 17155 ft | 373 kts | 194° |
| 2026-05-04 18:08 | 37.11350 | -4.92830 | 16640 ft | 370 kts | 194° |
| 2026-05-04 18:08 | 37.08811 | -4.93335 | 16130 ft | 368 kts | 194° |
| 2026-05-04 18:08 | 37.06291 | -4.93807 | 15635 ft | 367 kts | 191° |
| 2026-05-04 18:09 | 37.01161 | -4.93761 | 14653 ft | 367 kts | 182° |
| 2026-05-04 18:09 | 36.96077 | -4.93487 | 13693 ft | 363 kts | 182° |
| 2026-05-04 18:10 | 36.93564 | -4.93358 | 13168 ft | 360 kts | 182° |
| 2026-05-04 18:10 | 36.91071 | -4.93232 | 12653 ft | 357 kts | 182° |
| 2026-05-04 18:10 | 36.88595 | -4.93107 | 12140 ft | 355 kts | 182° |
| 2026-05-04 18:10 | 36.86138 | -4.92979 | 11636 ft | 353 kts | 182° |
| 2026-05-04 18:11 | 36.83720 | -4.92854 | 11148 ft | 351 kts | 181° |
| 2026-05-04 18:11 | 36.81292 | -4.92727 | 10665 ft | 348 kts | 181° |
| 2026-05-04 18:11 | 36.78885 | -4.92604 | 10194 ft | 345 kts | 181° |
| 2026-05-04 18:11 | 36.76508 | -4.92484 | 10000 ft | 340 kts | 181° |
| 2026-05-04 18:12 | 36.74200 | -4.92364 | 9994 ft | 323 kts | 182° |
| 2026-05-04 18:12 | 36.72014 | -4.92245 | 10000 ft | 307 kts | 182° |
| 2026-05-04 18:12 | 36.69923 | -4.92131 | 10001 ft | 293 kts | 182° |
| 2026-05-04 18:12 | 36.67899 | -4.92025 | 9999 ft | 290 kts | 183° |
| 2026-05-04 18:13 | 36.65885 | -4.91926 | 10004 ft | 288 kts | 182° |
| 2026-05-04 18:13 | 36.63886 | -4.91828 | 10002 ft | 288 kts | 182° |
| 2026-05-04 18:13 | 36.59881 | -4.91630 | 9967 ft | 287 kts | 182° |
| 2026-05-04 18:14 | 36.57889 | -4.91530 | 9640 ft | 286 kts | 182° |
| 2026-05-04 18:14 | 36.55903 | -4.91432 | 9338 ft | 284 kts | 182° |
| 2026-05-04 18:14 | 36.53930 | -4.91332 | 8969 ft | 284 kts | 181° |
| 2026-05-04 18:15 | 36.50001 | -4.91130 | 8344 ft | 281 kts | 181° |
| 2026-05-04 18:15 | 36.46108 | -4.90933 | 7657 ft | 279 kts | 181° |
| 2026-05-04 18:15 | 36.44196 | -4.90834 | 7326 ft | 278 kts | 181° |
| 2026-05-04 18:16 | 36.42259 | -4.90733 | 7011 ft | 277 kts | 181° |
| 2026-05-04 18:16 | 36.40339 | -4.90634 | 6684 ft | 276 kts | 181° |
| 2026-05-04 18:16 | 36.38421 | -4.90536 | 6342 ft | 276 kts | 180° |
| 2026-05-04 18:17 | 36.34575 | -4.90338 | 5624 ft | 277 kts | 180° |
| 2026-05-04 18:17 | 36.32652 | -4.90241 | 5285 ft | 277 kts | 180° |
| 2026-05-04 18:17 | 36.28810 | -4.90050 | 4608 ft | 275 kts | 179° |
| 2026-05-04 18:18 | 36.26899 | -4.89951 | 4262 ft | 274 kts | 179° |
| 2026-05-04 18:18 | 36.25000 | -4.89851 | 4015 ft | 272 kts | 180° |
| 2026-05-04 18:18 | 36.23124 | -4.89755 | 3987 ft | 263 kts | 180° |
| 2026-05-04 18:18 | 36.21342 | -4.89662 | 3993 ft | 249 kts | 180° |
| 2026-05-04 18:19 | 36.18125 | -4.89730 | 3998 ft | 218 kts | 199° |
| 2026-05-04 18:19 | 36.16798 | -4.90512 | 3998 ft | 212 kts | 221° |
| 2026-05-04 18:19 | 36.15762 | -4.91777 | 4007 ft | 209 kts | 230° |
| 2026-05-04 18:20 | 36.14672 | -4.92982 | 4008 ft | 210 kts | 229° |
| 2026-05-04 18:20 | 36.14049 | -4.94528 | 4004 ft | 200 kts | 270° |
| 2026-05-04 18:20 | 36.14198 | -4.96235 | 4012 ft | 202 kts | 279° |
| 2026-05-04 18:20 | 36.14350 | -4.97969 | 4006 ft | 202 kts | 277° |
| 2026-05-04 18:21 | 36.14457 | -4.99682 | 3838 ft | 198 kts | 276° |
| 2026-05-04 18:21 | 36.14545 | -5.01379 | 3548 ft | 197 kts | 276° |
| 2026-05-04 18:21 | 36.14625 | -5.03065 | 3280 ft | 196 kts | 276° |
| 2026-05-04 18:21 | 36.14702 | -5.04735 | 3067 ft | 191 kts | 275° |
| 2026-05-04 18:22 | 36.14773 | -5.06328 | 3007 ft | 179 kts | 275° |
| 2026-05-04 18:22 | 36.14836 | -5.07818 | 3008 ft | 169 kts | 275° |
| 2026-05-04 18:22 | 36.14898 | -5.09262 | 3040 ft | 168 kts | 276° |
| 2026-05-04 18:22 | 36.14957 | -5.10667 | 3017 ft | 164 kts | 276° |
| 2026-05-04 18:23 | 36.15017 | -5.12096 | 3009 ft | 164 kts | 275° |
| 2026-05-04 18:23 | 36.15077 | -5.13489 | 3006 ft | 164 kts | 275° |
| 2026-05-04 18:23 | 36.15138 | -5.14899 | 3008 ft | 164 kts | 275° |
| 2026-05-04 18:23 | 36.15197 | -5.16309 | 3009 ft | 164 kts | 275° |
| 2026-05-04 18:24 | 36.15262 | -5.17680 | 2969 ft | 156 kts | 277° |
| 2026-05-04 18:24 | 36.15395 | -5.18993 | 2896 ft | 151 kts | 279° |
| 2026-05-04 18:24 | 36.15551 | -5.20286 | 2716 ft | 151 kts | 277° |
| 2026-05-04 18:24 | 36.15582 | -5.21566 | 2581 ft | 143 kts | 270° |
| 2026-05-04 18:25 | 36.15515 | -5.22754 | 2409 ft | 134 kts | 267° |
| 2026-05-04 18:25 | 36.15451 | -5.23866 | 2311 ft | 130 kts | 268° |
| 2026-05-04 18:25 | 36.15429 | -5.24972 | 1989 ft | 127 kts | 272° |
| 2026-05-04 18:25 | 36.15445 | -5.26050 | 1703 ft | 125 kts | 270° |
| 2026-05-04 18:26 | 36.15423 | -5.27126 | 1484 ft | 126 kts | 268° |
| 2026-05-04 18:26 | 36.15359 | -5.28211 | 1227 ft | 126 kts | 266° |
| 2026-05-04 18:26 | 36.15295 | -5.29272 | 948 ft | 126 kts | 268° |
| 2026-05-04 18:26 | 36.15288 | -5.30389 | 715 ft | 129 kts | 269° |
| 2026-05-04 18:27 | 36.15254 | -5.31472 | 553 ft | 127 kts | 263° |
| 2026-05-04 18:27 | 36.15206 | -5.32567 | 377 ft | 129 kts | 265° |
| 2026-05-04 18:27 | 36.15171 | -5.33653 | 116 ft | 124 kts | 266° |
| 2026-05-04 18:27 | 36.15129 | -5.34703 | 21 ft | 113 kts | 266° |
| 2026-05-04 18:28 | 36.15111 | -5.35308 | 22 ft | 27 kts | 268° |
| 2026-05-04 18:28 | 36.15105 | -5.35479 | 21 ft | 17 kts | 267° |
| 2026-05-04 18:28 | 36.15100 | -5.35637 | 19 ft | 17 kts | 268° |
| 2026-05-04 18:28 | 36.15098 | -5.35756 | 19 ft | 15 kts | 268° |
| 2026-05-04 18:29 | 36.15082 | -5.35854 | 19 ft | 11 kts | 241° |
| 2026-05-04 18:29 | 36.15069 | -5.35931 | 19 ft | 3 kts | 307° |
| 2026-05-04 18:29 | 36.15079 | -5.35929 | 20 ft | 1 kts | 19° |
| 2026-05-04 18:29 | 36.15086 | -5.35908 | 19 ft | 11 kts | 80° |
| 2026-05-04 18:30 | 36.15104 | -5.35400 | 21 ft | 34 kts | 88° |
| 2026-05-04 18:30 | 36.15117 | -5.35094 | 22 ft | 37 kts | 87° |
| 2026-05-04 18:30 | 36.15125 | -5.34839 | 21 ft | 20 kts | 88° |
| 2026-05-04 18:31 | 36.15137 | -5.34704 | 20 ft | 12 kts | 60° |
| 2026-05-04 18:31 | 36.15208 | -5.34673 | 20 ft | 11 kts | 21° |
| 2026-05-04 18:31 | 36.15252 | -5.34620 | 17 ft | 8 kts | 13° |
| 2026-05-04 18:31 | 36.15290 | -5.34620 | 17 ft | 4 kts | 354° |
| 2026-05-04 18:32 | 36.15307 | -5.34621 | 17 ft | 0 kts | 358° |